sensor_id;sensor_type;location;lat;lon;timestamp;temperature;humidity
27819;DHT22;15192;44.854;10.046;2023-06-26T00:00:36;21.10;99.90
27819;DHT22;15192;44.854;10.046;2023-06-26T00:03:05;21.00;99.90
27819;DHT22;15192;44.854;10.046;2023-06-26T00:05:34;21.00;99.90
27819;DHT22;15192;44.854;10.046;2023-06-26T00:08:03;21.00;99.90
27819;DHT22;15192;44.854;10.046;2023-06-26T00:10:34;21.00;99.90
27819;DHT22;15192;44.854;10.046;2023-06-26T00:13:03;20.90;99.90
27819;DHT22;15192;44.854;10.046;2023-06-26T00:15:32;20.90;99.90
27819;DHT22;15192;44.854;10.046;2023-06-26T00:18:01;20.90;99.90
27819;DHT22;15192;44.854;10.046;2023-06-26T00:20:31;20.90;99.90
27819;DHT22;15192;44.854;10.046;2023-06-26T00:23:01;20.90;99.90
27819;DHT22;15192;44.854;10.046;2023-06-26T00:25:32;20.90;99.90
27819;DHT22;15192;44.854;10.046;2023-06-26T00:28:01;20.90;99.90
27819;DHT22;15192;44.854;10.046;2023-06-26T00:30:30;20.90;99.90
27819;DHT22;15192;44.854;10.046;2023-06-26T00:32:59;20.90;99.90
27819;DHT22;15192;44.854;10.046;2023-06-26T00:35:28;20.80;99.90
27819;DHT22;15192;44.854;10.046;2023-06-26T00:37:57;20.80;99.90
27819;DHT22;15192;44.854;10.046;2023-06-26T00:40:26;20.70;99.90
27819;DHT22;15192;44.854;10.046;2023-06-26T00:42:55;20.60;99.90
27819;DHT22;15192;44.854;10.046;2023-06-26T00:45:24;20.60;99.90
27819;DHT22;15192;44.854;10.046;2023-06-26T00:47:53;20.50;99.90
27819;DHT22;15192;44.854;10.046;2023-06-26T00:50:23;20.40;99.90
27819;DHT22;15192;44.854;10.046;2023-06-26T00:52:52;20.40;99.90
27819;DHT22;15192;44.854;10.046;2023-06-26T00:55:23;20.30;99.90
27819;DHT22;15192;44.854;10.046;2023-06-26T00:57:52;20.30;99.90
27819;DHT22;15192;44.854;10.046;2023-06-26T01:00:21;20.30;99.90
27819;DHT22;15192;44.854;10.046;2023-06-26T01:02:51;20.20;99.90
27819;DHT22;15192;44.854;10.046;2023-06-26T01:05:21;20.20;99.90
27819;DHT22;15192;44.854;10.046;2023-06-26T01:07:50;20.10;99.90
27819;DHT22;15192;44.854;10.046;2023-06-26T01:10:19;20.00;99.90
27819;DHT22;15192;44.854;10.046;2023-06-26T01:12:48;19.90;99.90
27819;DHT22;15192;44.854;10.046;2023-06-26T01:15:17;19.80;99.90
27819;DHT22;15192;44.854;10.046;2023-06-26T01:17:46;19.70;99.90
27819;DHT22;15192;44.854;10.046;2023-06-26T01:20:16;19.70;99.90
27819;DHT22;15192;44.854;10.046;2023-06-26T01:23:09;19.70;99.90
27819;DHT22;15192;44.854;10.046;2023-06-26T01:28:41;19.50;99.90
27819;DHT22;15192;44.854;10.046;2023-06-26T01:31:12;19.50;99.90
27819;DHT22;15192;44.854;10.046;2023-06-26T01:33:42;19.40;99.90
27819;DHT22;15192;44.854;10.046;2023-06-26T01:36:11;19.40;99.90
27819;DHT22;15192;44.854;10.046;2023-06-26T01:38:40;19.30;99.90
27819;DHT22;15192;44.854;10.046;2023-06-26T01:41:09;19.30;99.90
27819;DHT22;15192;44.854;10.046;2023-06-26T01:46:46;19.20;99.90
27819;DHT22;15192;44.854;10.046;2023-06-26T01:49:33;19.30;99.90
27819;DHT22;15192;44.854;10.046;2023-06-26T01:52:25;19.30;99.90
27819;DHT22;15192;44.854;10.046;2023-06-26T01:54:58;19.40;99.90
27819;DHT22;15192;44.854;10.046;2023-06-26T01:57:27;19.40;99.90
27819;DHT22;15192;44.854;10.046;2023-06-26T01:59:56;19.50;99.90
27819;DHT22;15192;44.854;10.046;2023-06-26T02:02:28;19.50;99.90
27819;DHT22;15192;44.854;10.046;2023-06-26T02:04:57;19.50;99.90
27819;DHT22;15192;44.854;10.046;2023-06-26T02:07:26;19.50;99.90
27819;DHT22;15192;44.854;10.046;2023-06-26T02:09:56;19.50;99.90
27819;DHT22;15192;44.854;10.046;2023-06-26T02:12:25;19.50;99.90
27819;DHT22;15192;44.854;10.046;2023-06-26T02:14:54;19.40;99.90
27819;DHT22;15192;44.854;10.046;2023-06-26T02:17:24;19.30;99.90
27819;DHT22;15192;44.854;10.046;2023-06-26T02:19:55;19.20;99.90
27819;DHT22;15192;44.854;10.046;2023-06-26T02:22:24;19.20;99.90
27819;DHT22;15192;44.854;10.046;2023-06-26T02:24:52;19.10;99.90
27819;DHT22;15192;44.854;10.046;2023-06-26T02:27:21;19.00;99.90
27819;DHT22;15192;44.854;10.046;2023-06-26T02:29:50;19.00;99.90
27819;DHT22;15192;44.854;10.046;2023-06-26T02:32:19;19.00;99.90
27819;DHT22;15192;44.854;10.046;2023-06-26T02:34:50;18.90;99.90
27819;DHT22;15192;44.854;10.046;2023-06-26T02:37:20;18.90;99.90
27819;DHT22;15192;44.854;10.046;2023-06-26T02:39:49;18.90;99.90
27819;DHT22;15192;44.854;10.046;2023-06-26T02:42:18;18.80;99.90
27819;DHT22;15192;44.854;10.046;2023-06-26T02:44:47;18.80;99.90
27819;DHT22;15192;44.854;10.046;2023-06-26T02:47:16;18.80;99.90
27819;DHT22;15192;44.854;10.046;2023-06-26T02:49:45;18.90;99.90
27819;DHT22;15192;44.854;10.046;2023-06-26T02:52:14;18.90;99.90
27819;DHT22;15192;44.854;10.046;2023-06-26T02:54:43;18.90;99.90
27819;DHT22;15192;44.854;10.046;2023-06-26T02:57:13;18.90;99.90
27819;DHT22;15192;44.854;10.046;2023-06-26T02:59:42;19.00;99.90
27819;DHT22;15192;44.854;10.046;2023-06-26T03:02:12;19.00;99.90
27819;DHT22;15192;44.854;10.046;2023-06-26T03:04:42;19.00;99.90
27819;DHT22;15192;44.854;10.046;2023-06-26T03:07:13;19.00;99.90
27819;DHT22;15192;44.854;10.046;2023-06-26T03:09:42;19.00;99.90
27819;DHT22;15192;44.854;10.046;2023-06-26T03:12:12;19.00;99.90
27819;DHT22;15192;44.854;10.046;2023-06-26T03:14:43;19.00;99.90
27819;DHT22;15192;44.854;10.046;2023-06-26T03:17:12;19.00;99.90
27819;DHT22;15192;44.854;10.046;2023-06-26T03:19:41;19.00;99.90
27819;DHT22;15192;44.854;10.046;2023-06-26T03:22:21;19.00;99.90
27819;DHT22;15192;44.854;10.046;2023-06-26T03:24:49;19.00;99.90
27819;DHT22;15192;44.854;10.046;2023-06-26T03:27:18;19.10;99.90
27819;DHT22;15192;44.854;10.046;2023-06-26T03:29:48;19.10;99.90
27819;DHT22;15192;44.854;10.046;2023-06-26T03:32:18;19.00;99.90
27819;DHT22;15192;44.854;10.046;2023-06-26T03:34:46;19.00;99.90
27819;DHT22;15192;44.854;10.046;2023-06-26T03:37:15;19.00;99.90
27819;DHT22;15192;44.854;10.046;2023-06-26T03:39:45;19.00;99.90
27819;DHT22;15192;44.854;10.046;2023-06-26T03:42:14;19.00;99.90
27819;DHT22;15192;44.854;10.046;2023-06-26T03:44:43;19.00;99.90
27819;DHT22;15192;44.854;10.046;2023-06-26T03:47:12;19.00;99.90
27819;DHT22;15192;44.854;10.046;2023-06-26T03:49:41;19.00;99.90
27819;DHT22;15192;44.854;10.046;2023-06-26T03:52:11;19.00;99.90
27819;DHT22;15192;44.854;10.046;2023-06-26T03:54:40;19.00;99.90
27819;DHT22;15192;44.854;10.046;2023-06-26T03:57:10;19.00;99.90
27819;DHT22;15192;44.854;10.046;2023-06-26T03:59:39;19.00;99.90
27819;DHT22;15192;44.854;10.046;2023-06-26T04:02:08;19.00;99.90
27819;DHT22;15192;44.854;10.046;2023-06-26T04:04:37;19.00;99.90
27819;DHT22;15192;44.854;10.046;2023-06-26T04:07:06;19.10;99.90
27819;DHT22;15192;44.854;10.046;2023-06-26T04:09:35;19.10;99.90
27819;DHT22;15192;44.854;10.046;2023-06-26T04:12:05;19.20;99.90
27819;DHT22;15192;44.854;10.046;2023-06-26T04:14:34;19.30;99.90
27819;DHT22;15192;44.854;10.046;2023-06-26T04:17:03;19.30;99.90
27819;DHT22;15192;44.854;10.046;2023-06-26T04:19:32;19.30;99.90
27819;DHT22;15192;44.854;10.046;2023-06-26T04:22:01;19.40;99.90
27819;DHT22;15192;44.854;10.046;2023-06-26T04:24:30;19.40;99.90
27819;DHT22;15192;44.854;10.046;2023-06-26T04:26:59;19.50;99.90
27819;DHT22;15192;44.854;10.046;2023-06-26T04:29:28;19.60;99.90
27819;DHT22;15192;44.854;10.046;2023-06-26T04:31:57;19.70;99.90
27819;DHT22;15192;44.854;10.046;2023-06-26T04:34:32;19.90;99.90
27819;DHT22;15192;44.854;10.046;2023-06-26T04:36:58;20.20;99.90
27819;DHT22;15192;44.854;10.046;2023-06-26T04:39:27;20.90;99.90
27819;DHT22;15192;44.854;10.046;2023-06-26T04:41:56;21.90;99.90
27819;DHT22;15192;44.854;10.046;2023-06-26T04:44:25;22.70;99.90
27819;DHT22;15192;44.854;10.046;2023-06-26T04:46:53;23.70;99.90
27819;DHT22;15192;44.854;10.046;2023-06-26T04:49:22;24.50;99.90
27819;DHT22;15192;44.854;10.046;2023-06-26T04:51:51;25.30;99.90
27819;DHT22;15192;44.854;10.046;2023-06-26T04:54:21;25.70;99.90
27819;DHT22;15192;44.854;10.046;2023-06-26T04:56:50;26.40;99.90
27819;DHT22;15192;44.854;10.046;2023-06-26T04:59:19;27.00;99.90
27819;DHT22;15192;44.854;10.046;2023-06-26T05:01:48;27.40;99.90
27819;DHT22;15192;44.854;10.046;2023-06-26T05:04:17;27.80;99.90
27819;DHT22;15192;44.854;10.046;2023-06-26T05:06:45;28.20;99.90
27819;DHT22;15192;44.854;10.046;2023-06-26T05:09:14;28.40;99.90
27819;DHT22;15192;44.854;10.046;2023-06-26T05:11:43;28.50;99.90
27819;DHT22;15192;44.854;10.046;2023-06-26T05:14:12;29.00;99.90
27819;DHT22;15192;44.854;10.046;2023-06-26T05:16:41;29.30;99.90
27819;DHT22;15192;44.854;10.046;2023-06-26T05:19:10;29.80;99.90
27819;DHT22;15192;44.854;10.046;2023-06-26T05:21:39;30.30;99.90
27819;DHT22;15192;44.854;10.046;2023-06-26T05:24:09;30.60;99.90
27819;DHT22;15192;44.854;10.046;2023-06-26T05:26:39;30.60;99.90
27819;DHT22;15192;44.854;10.046;2023-06-26T05:29:09;30.60;99.90
27819;DHT22;15192;44.854;10.046;2023-06-26T05:31:40;31.20;99.90
27819;DHT22;15192;44.854;10.046;2023-06-26T05:34:10;31.40;99.90
27819;DHT22;15192;44.854;10.046;2023-06-26T05:36:41;31.60;99.90
27819;DHT22;15192;44.854;10.046;2023-06-26T05:39:10;31.40;99.90
27819;DHT22;15192;44.854;10.046;2023-06-26T05:41:39;31.50;99.90
27819;DHT22;15192;44.854;10.046;2023-06-26T05:44:08;31.00;99.90
27819;DHT22;15192;44.854;10.046;2023-06-26T05:46:38;30.20;99.90
27819;DHT22;15192;44.854;10.046;2023-06-26T05:49:07;30.10;99.90
27819;DHT22;15192;44.854;10.046;2023-06-26T05:51:36;30.20;99.90
27819;DHT22;15192;44.854;10.046;2023-06-26T05:54:05;29.90;99.90
27819;DHT22;15192;44.854;10.046;2023-06-26T05:56:35;29.70;99.90
27819;DHT22;15192;44.854;10.046;2023-06-26T05:59:04;29.70;99.90
27819;DHT22;15192;44.854;10.046;2023-06-26T06:01:34;29.60;99.90
27819;DHT22;15192;44.854;10.046;2023-06-26T06:04:03;29.30;99.90
27819;DHT22;15192;44.854;10.046;2023-06-26T06:06:32;29.20;99.90
27819;DHT22;15192;44.854;10.046;2023-06-26T06:09:01;29.50;99.90
27819;DHT22;15192;44.854;10.046;2023-06-26T06:11:31;29.40;99.90
27819;DHT22;15192;44.854;10.046;2023-06-26T06:14:00;29.20;99.90
27819;DHT22;15192;44.854;10.046;2023-06-26T06:16:29;29.30;99.90
27819;DHT22;15192;44.854;10.046;2023-06-26T06:18:57;29.30;99.90
27819;DHT22;15192;44.854;10.046;2023-06-26T06:21:26;29.30;99.90
27819;DHT22;15192;44.854;10.046;2023-06-26T06:23:55;29.40;99.90
27819;DHT22;15192;44.854;10.046;2023-06-26T06:26:24;29.20;99.90
27819;DHT22;15192;44.854;10.046;2023-06-26T06:28:53;29.40;99.90
27819;DHT22;15192;44.854;10.046;2023-06-26T06:31:22;29.30;99.90
27819;DHT22;15192;44.854;10.046;2023-06-26T06:33:51;29.20;99.90
27819;DHT22;15192;44.854;10.046;2023-06-26T06:36:20;29.20;99.90
27819;DHT22;15192;44.854;10.046;2023-06-26T06:38:48;29.20;99.90
27819;DHT22;15192;44.854;10.046;2023-06-26T06:41:17;29.10;99.90
27819;DHT22;15192;44.854;10.046;2023-06-26T06:43:46;29.10;99.90
27819;DHT22;15192;44.854;10.046;2023-06-26T06:46:15;29.10;99.90
27819;DHT22;15192;44.854;10.046;2023-06-26T06:48:44;29.00;99.90
27819;DHT22;15192;44.854;10.046;2023-06-26T06:51:14;28.90;99.90
27819;DHT22;15192;44.854;10.046;2023-06-26T06:53:43;28.70;99.90
27819;DHT22;15192;44.854;10.046;2023-06-26T06:56:12;28.60;99.90
27819;DHT22;15192;44.854;10.046;2023-06-26T06:58:41;28.80;99.90
27819;DHT22;15192;44.854;10.046;2023-06-26T07:01:10;28.80;99.90
27819;DHT22;15192;44.854;10.046;2023-06-26T07:03:39;29.10;99.90
27819;DHT22;15192;44.854;10.046;2023-06-26T07:06:08;29.30;99.90
27819;DHT22;15192;44.854;10.046;2023-06-26T07:08:37;29.50;99.90
27819;DHT22;15192;44.854;10.046;2023-06-26T07:11:06;29.70;99.90
27819;DHT22;15192;44.854;10.046;2023-06-26T07:13:35;29.80;99.90
27819;DHT22;15192;44.854;10.046;2023-06-26T07:16:05;30.00;99.90
27819;DHT22;15192;44.854;10.046;2023-06-26T07:18:33;30.30;99.90
27819;DHT22;15192;44.854;10.046;2023-06-26T07:21:02;30.30;99.90
27819;DHT22;15192;44.854;10.046;2023-06-26T07:23:31;30.30;99.90
27819;DHT22;15192;44.854;10.046;2023-06-26T07:26:00;30.50;99.90
27819;DHT22;15192;44.854;10.046;2023-06-26T07:28:29;30.50;99.90
27819;DHT22;15192;44.854;10.046;2023-06-26T07:30:58;30.60;99.90
27819;DHT22;15192;44.854;10.046;2023-06-26T07:33:27;30.60;99.90
27819;DHT22;15192;44.854;10.046;2023-06-26T07:35:55;30.50;99.90
27819;DHT22;15192;44.854;10.046;2023-06-26T07:38:24;30.70;99.90
27819;DHT22;15192;44.854;10.046;2023-06-26T07:40:53;30.60;99.90
27819;DHT22;15192;44.854;10.046;2023-06-26T07:43:22;30.80;99.90
27819;DHT22;15192;44.854;10.046;2023-06-26T07:45:51;30.80;99.90
27819;DHT22;15192;44.854;10.046;2023-06-26T07:48:21;31.10;99.90
27819;DHT22;15192;44.854;10.046;2023-06-26T07:50:50;31.10;99.90
27819;DHT22;15192;44.854;10.046;2023-06-26T07:53:19;30.70;99.90
27819;DHT22;15192;44.854;10.046;2023-06-26T07:55:48;30.80;99.90
27819;DHT22;15192;44.854;10.046;2023-06-26T07:58:17;31.20;99.90
27819;DHT22;15192;44.854;10.046;2023-06-26T08:00:46;31.40;99.90
27819;DHT22;15192;44.854;10.046;2023-06-26T08:03:15;31.70;99.90
27819;DHT22;15192;44.854;10.046;2023-06-26T08:05:43;31.70;99.90
27819;DHT22;15192;44.854;10.046;2023-06-26T08:08:12;31.70;99.90
27819;DHT22;15192;44.854;10.046;2023-06-26T08:10:41;31.70;99.90
27819;DHT22;15192;44.854;10.046;2023-06-26T08:13:10;31.70;99.90
27819;DHT22;15192;44.854;10.046;2023-06-26T08:15:39;31.60;99.90
27819;DHT22;15192;44.854;10.046;2023-06-26T08:18:08;31.60;99.90
27819;DHT22;15192;44.854;10.046;2023-06-26T08:20:37;31.70;99.90
27819;DHT22;15192;44.854;10.046;2023-06-26T08:23:05;31.70;99.90
27819;DHT22;15192;44.854;10.046;2023-06-26T08:25:34;31.70;99.90
27819;DHT22;15192;44.854;10.046;2023-06-26T08:28:03;31.90;99.90
27819;DHT22;15192;44.854;10.046;2023-06-26T08:30:33;31.90;99.90
27819;DHT22;15192;44.854;10.046;2023-06-26T08:33:02;31.90;99.90
27819;DHT22;15192;44.854;10.046;2023-06-26T08:35:30;31.80;99.90
27819;DHT22;15192;44.854;10.046;2023-06-26T08:37:59;31.70;99.90
27819;DHT22;15192;44.854;10.046;2023-06-26T08:40:28;31.70;99.90
27819;DHT22;15192;44.854;10.046;2023-06-26T08:42:58;31.70;99.90
27819;DHT22;15192;44.854;10.046;2023-06-26T08:45:27;31.80;99.90
27819;DHT22;15192;44.854;10.046;2023-06-26T08:47:59;31.70;99.90
27819;DHT22;15192;44.854;10.046;2023-06-26T08:50:30;31.70;99.90
27819;DHT22;15192;44.854;10.046;2023-06-26T08:53:04;31.80;99.90
27819;DHT22;15192;44.854;10.046;2023-06-26T08:55:36;31.90;99.90
27819;DHT22;15192;44.854;10.046;2023-06-26T08:58:07;31.70;99.90
27819;DHT22;15192;44.854;10.046;2023-06-26T09:00:38;32.00;99.90
27819;DHT22;15192;44.854;10.046;2023-06-26T09:03:08;32.00;99.80
27819;DHT22;15192;44.854;10.046;2023-06-26T09:05:37;32.10;99.80
27819;DHT22;15192;44.854;10.046;2023-06-26T09:08:07;32.10;99.90
27819;DHT22;15192;44.854;10.046;2023-06-26T09:10:36;32.20;99.90
27819;DHT22;15192;44.854;10.046;2023-06-26T09:13:05;32.20;99.90
27819;DHT22;15192;44.854;10.046;2023-06-26T09:15:44;32.30;99.90
27819;DHT22;15192;44.854;10.046;2023-06-26T09:18:17;32.50;99.90
27819;DHT22;15192;44.854;10.046;2023-06-26T09:20:46;32.50;99.50
27819;DHT22;15192;44.854;10.046;2023-06-26T09:23:15;32.60;99.30
27819;DHT22;15192;44.854;10.046;2023-06-26T09:25:44;32.60;98.10
27819;DHT22;15192;44.854;10.046;2023-06-26T09:28:14;32.50;99.30
27819;DHT22;15192;44.854;10.046;2023-06-26T09:30:45;32.50;97.70
27819;DHT22;15192;44.854;10.046;2023-06-26T09:33:20;32.30;98.40
27819;DHT22;15192;44.854;10.046;2023-06-26T09:35:49;32.40;98.80
27819;DHT22;15192;44.854;10.046;2023-06-26T09:38:18;32.50;98.30
27819;DHT22;15192;44.854;10.046;2023-06-26T09:40:48;32.50;98.30
27819;DHT22;15192;44.854;10.046;2023-06-26T09:43:18;32.40;97.20
27819;DHT22;15192;44.854;10.046;2023-06-26T09:45:47;32.30;98.60
27819;DHT22;15192;44.854;10.046;2023-06-26T09:48:16;32.30;97.60
27819;DHT22;15192;44.854;10.046;2023-06-26T09:50:46;32.10;98.70
27819;DHT22;15192;44.854;10.046;2023-06-26T09:53:15;32.00;97.30
27819;DHT22;15192;44.854;10.046;2023-06-26T09:55:46;31.90;98.10
27819;DHT22;15192;44.854;10.046;2023-06-26T09:58:16;31.90;98.80
27819;DHT22;15192;44.854;10.046;2023-06-26T10:00:45;31.80;98.20
27819;DHT22;15192;44.854;10.046;2023-06-26T10:03:14;31.90;97.50
27819;DHT22;15192;44.854;10.046;2023-06-26T10:05:43;31.80;97.70
27819;DHT22;15192;44.854;10.046;2023-06-26T10:08:14;31.80;97.30
27819;DHT22;15192;44.854;10.046;2023-06-26T10:10:43;31.70;96.80
27819;DHT22;15192;44.854;10.046;2023-06-26T10:13:15;31.60;97.40
27819;DHT22;15192;44.854;10.046;2023-06-26T10:15:46;31.50;97.60
27819;DHT22;15192;44.854;10.046;2023-06-26T10:18:18;31.30;97.60
27819;DHT22;15192;44.854;10.046;2023-06-26T10:20:48;31.30;98.50
27819;DHT22;15192;44.854;10.046;2023-06-26T10:23:18;31.40;98.10
27819;DHT22;15192;44.854;10.046;2023-06-26T10:25:51;31.40;98.10
27819;DHT22;15192;44.854;10.046;2023-06-26T10:28:21;31.40;98.40
27819;DHT22;15192;44.854;10.046;2023-06-26T10:30:51;31.40;97.70
27819;DHT22;15192;44.854;10.046;2023-06-26T10:33:20;31.30;98.20
27819;DHT22;15192;44.854;10.046;2023-06-26T10:35:50;31.10;98.60
27819;DHT22;15192;44.854;10.046;2023-06-26T10:38:19;31.00;99.00
27819;DHT22;15192;44.854;10.046;2023-06-26T10:40:48;30.90;99.20
27819;DHT22;15192;44.854;10.046;2023-06-26T10:43:17;30.80;98.30
27819;DHT22;15192;44.854;10.046;2023-06-26T10:45:51;30.80;98.60
27819;DHT22;15192;44.854;10.046;2023-06-26T10:48:25;30.90;98.50
27819;DHT22;15192;44.854;10.046;2023-06-26T10:50:54;30.90;98.00
27819;DHT22;15192;44.854;10.046;2023-06-26T10:53:25;30.90;97.70
27819;DHT22;15192;44.854;10.046;2023-06-26T10:56:03;30.90;97.80
27819;DHT22;15192;44.854;10.046;2023-06-26T10:58:34;30.80;97.80
27819;DHT22;15192;44.854;10.046;2023-06-26T11:01:14;30.60;98.10
27819;DHT22;15192;44.854;10.046;2023-06-26T11:03:47;30.60;98.90
27819;DHT22;15192;44.854;10.046;2023-06-26T11:06:20;30.70;99.00
27819;DHT22;15192;44.854;10.046;2023-06-26T11:08:53;30.80;99.30
27819;DHT22;15192;44.854;10.046;2023-06-26T11:11:22;30.80;99.60
27819;DHT22;15192;44.854;10.046;2023-06-26T11:13:54;31.00;99.10
27819;DHT22;15192;44.854;10.046;2023-06-26T11:16:25;31.00;99.30
27819;DHT22;15192;44.854;10.046;2023-06-26T11:18:57;31.10;98.40
27819;DHT22;15192;44.854;10.046;2023-06-26T11:21:26;31.10;98.30
27819;DHT22;15192;44.854;10.046;2023-06-26T11:23:57;31.20;97.90
27819;DHT22;15192;44.854;10.046;2023-06-26T11:26:27;31.10;98.20
27819;DHT22;15192;44.854;10.046;2023-06-26T11:28:56;31.10;97.80
27819;DHT22;15192;44.854;10.046;2023-06-26T11:31:27;31.10;99.70
27819;DHT22;15192;44.854;10.046;2023-06-26T11:34:02;31.10;98.70
27819;DHT22;15192;44.854;10.046;2023-06-26T11:36:31;30.90;97.10
27819;DHT22;15192;44.854;10.046;2023-06-26T11:39:02;30.90;97.40
27819;DHT22;15192;44.854;10.046;2023-06-26T11:41:35;30.90;97.70
27819;DHT22;15192;44.854;10.046;2023-06-26T11:44:05;31.00;97.60
27819;DHT22;15192;44.854;10.046;2023-06-26T11:46:35;31.00;97.30
27819;DHT22;15192;44.854;10.046;2023-06-26T11:49:05;30.90;97.60
27819;DHT22;15192;44.854;10.046;2023-06-26T11:51:34;31.00;98.60
27819;DHT22;15192;44.854;10.046;2023-06-26T11:54:05;31.10;98.90
27819;DHT22;15192;44.854;10.046;2023-06-26T11:56:34;31.30;98.50
27819;DHT22;15192;44.854;10.046;2023-06-26T11:59:11;31.40;98.50
27819;DHT22;15192;44.854;10.046;2023-06-26T12:01:39;31.30;97.40
27819;DHT22;15192;44.854;10.046;2023-06-26T12:04:10;31.10;98.40
27819;DHT22;15192;44.854;10.046;2023-06-26T12:06:42;31.10;98.20
27819;DHT22;15192;44.854;10.046;2023-06-26T12:09:12;31.20;97.90
27819;DHT22;15192;44.854;10.046;2023-06-26T12:11:43;31.10;97.30
27819;DHT22;15192;44.854;10.046;2023-06-26T12:14:12;31.10;97.60
27819;DHT22;15192;44.854;10.046;2023-06-26T12:16:41;31.10;98.20
27819;DHT22;15192;44.854;10.046;2023-06-26T12:19:11;31.10;97.90
27819;DHT22;15192;44.854;10.046;2023-06-26T12:24:16;31.00;97.40
27819;DHT22;15192;44.854;10.046;2023-06-26T12:26:52;31.10;97.70
27819;DHT22;15192;44.854;10.046;2023-06-26T12:29:29;31.10;98.20
27819;DHT22;15192;44.854;10.046;2023-06-26T12:31:52;31.10;98.10
27819;DHT22;15192;44.854;10.046;2023-06-26T12:34:33;31.10;98.50
27819;DHT22;15192;44.854;10.046;2023-06-26T12:37:09;31.20;97.90
27819;DHT22;15192;44.854;10.046;2023-06-26T12:39:53;31.30;97.70
27819;DHT22;15192;44.854;10.046;2023-06-26T12:42:25;31.30;98.40
27819;DHT22;15192;44.854;10.046;2023-06-26T12:44:55;31.30;98.10
27819;DHT22;15192;44.854;10.046;2023-06-26T12:47:28;31.30;98.10
27819;DHT22;15192;44.854;10.046;2023-06-26T12:49:59;31.30;97.90
27819;DHT22;15192;44.854;10.046;2023-06-26T12:52:29;31.30;98.00
27819;DHT22;15192;44.854;10.046;2023-06-26T12:54:58;31.30;98.20
27819;DHT22;15192;44.854;10.046;2023-06-26T12:57:27;31.30;98.80
27819;DHT22;15192;44.854;10.046;2023-06-26T12:59:56;31.40;99.10
27819;DHT22;15192;44.854;10.046;2023-06-26T13:02:25;31.50;97.90
27819;DHT22;15192;44.854;10.046;2023-06-26T13:04:54;31.50;97.40
27819;DHT22;15192;44.854;10.046;2023-06-26T13:07:22;31.50;97.50
27819;DHT22;15192;44.854;10.046;2023-06-26T13:09:53;31.40;97.80
27819;DHT22;15192;44.854;10.046;2023-06-26T13:12:23;31.50;97.90
27819;DHT22;15192;44.854;10.046;2023-06-26T13:14:52;31.50;97.90
27819;DHT22;15192;44.854;10.046;2023-06-26T13:17:21;31.60;97.60
27819;DHT22;15192;44.854;10.046;2023-06-26T13:19:49;31.60;97.70
27819;DHT22;15192;44.854;10.046;2023-06-26T13:22:18;31.60;97.50
27819;DHT22;15192;44.854;10.046;2023-06-26T13:24:48;31.60;97.40
27819;DHT22;15192;44.854;10.046;2023-06-26T13:27:17;31.60;97.60
27819;DHT22;15192;44.854;10.046;2023-06-26T13:29:46;31.60;97.90
27819;DHT22;15192;44.854;10.046;2023-06-26T13:32:14;31.60;97.80
27819;DHT22;15192;44.854;10.046;2023-06-26T13:34:43;31.60;97.60
27819;DHT22;15192;44.854;10.046;2023-06-26T13:37:13;31.60;98.20
27819;DHT22;15192;44.854;10.046;2023-06-26T13:39:41;31.70;98.10
27819;DHT22;15192;44.854;10.046;2023-06-26T13:42:12;31.70;97.50
27819;DHT22;15192;44.854;10.046;2023-06-26T13:44:41;31.80;97.50
27819;DHT22;15192;44.854;10.046;2023-06-26T13:47:12;32.00;97.30
27819;DHT22;15192;44.854;10.046;2023-06-26T13:49:42;32.00;97.30
27819;DHT22;15192;44.854;10.046;2023-06-26T13:52:11;32.00;97.30
27819;DHT22;15192;44.854;10.046;2023-06-26T13:54:40;32.00;97.60
27819;DHT22;15192;44.854;10.046;2023-06-26T13:57:09;31.90;97.50
27819;DHT22;15192;44.854;10.046;2023-06-26T13:59:39;31.80;97.80
27819;DHT22;15192;44.854;10.046;2023-06-26T14:02:08;32.00;99.50
27819;DHT22;15192;44.854;10.046;2023-06-26T14:04:37;32.00;98.50
27819;DHT22;15192;44.854;10.046;2023-06-26T14:07:06;32.00;98.80
27819;DHT22;15192;44.854;10.046;2023-06-26T14:09:35;32.00;98.50
27819;DHT22;15192;44.854;10.046;2023-06-26T14:12:04;32.00;98.60
27819;DHT22;15192;44.854;10.046;2023-06-26T14:14:33;31.90;98.70
27819;DHT22;15192;44.854;10.046;2023-06-26T14:17:03;32.00;97.80
27819;DHT22;15192;44.854;10.046;2023-06-26T14:19:33;32.00;98.40
27819;DHT22;15192;44.854;10.046;2023-06-26T14:22:02;32.00;97.60
27819;DHT22;15192;44.854;10.046;2023-06-26T14:24:31;32.00;97.30
27819;DHT22;15192;44.854;10.046;2023-06-26T14:27:00;31.80;97.70
27819;DHT22;15192;44.854;10.046;2023-06-26T14:29:30;31.70;98.40
27819;DHT22;15192;44.854;10.046;2023-06-26T14:31:59;31.70;98.10
27819;DHT22;15192;44.854;10.046;2023-06-26T14:34:28;31.70;98.50
27819;DHT22;15192;44.854;10.046;2023-06-26T14:36:57;31.80;97.70
27819;DHT22;15192;44.854;10.046;2023-06-26T14:39:26;31.80;98.00
27819;DHT22;15192;44.854;10.046;2023-06-26T14:41:55;31.80;98.10
27819;DHT22;15192;44.854;10.046;2023-06-26T14:44:24;31.80;97.60
27819;DHT22;15192;44.854;10.046;2023-06-26T14:46:53;31.80;98.20
27819;DHT22;15192;44.854;10.046;2023-06-26T14:49:22;31.80;98.20
27819;DHT22;15192;44.854;10.046;2023-06-26T14:51:51;31.80;98.00
27819;DHT22;15192;44.854;10.046;2023-06-26T14:54:20;31.80;98.20
27819;DHT22;15192;44.854;10.046;2023-06-26T14:56:49;31.80;98.00
27819;DHT22;15192;44.854;10.046;2023-06-26T14:59:17;31.80;98.20
27819;DHT22;15192;44.854;10.046;2023-06-26T15:01:46;31.90;98.10
27819;DHT22;15192;44.854;10.046;2023-06-26T15:04:15;31.80;98.50
27819;DHT22;15192;44.854;10.046;2023-06-26T15:06:44;31.80;98.10
27819;DHT22;15192;44.854;10.046;2023-06-26T15:09:13;31.90;98.00
27819;DHT22;15192;44.854;10.046;2023-06-26T15:11:42;31.90;97.30
27819;DHT22;15192;44.854;10.046;2023-06-26T15:14:11;31.80;97.80
27819;DHT22;15192;44.854;10.046;2023-06-26T15:16:40;31.80;97.60
27819;DHT22;15192;44.854;10.046;2023-06-26T15:19:08;31.80;97.80
27819;DHT22;15192;44.854;10.046;2023-06-26T15:21:37;31.90;98.00
27819;DHT22;15192;44.854;10.046;2023-06-26T15:24:07;32.00;97.50
27819;DHT22;15192;44.854;10.046;2023-06-26T15:26:35;32.10;97.20
27819;DHT22;15192;44.854;10.046;2023-06-26T15:29:04;32.10;97.20
27819;DHT22;15192;44.854;10.046;2023-06-26T15:31:33;32.20;96.80
27819;DHT22;15192;44.854;10.046;2023-06-26T15:34:02;32.10;97.30
27819;DHT22;15192;44.854;10.046;2023-06-26T15:36:32;32.20;97.20
27819;DHT22;15192;44.854;10.046;2023-06-26T15:39:01;32.20;96.70